Terminal Aerodrome Forecast
Issued by NWS Green Bay, WI

Home | Current Version | Previous Version | Text Only | Print | Product List | Glossary Off
Versions: 1 2 3 4 5 6 7 8 9 10 11 12 13 14 15 16 17 18 19

000
FTUS43 KGRB 200537
TAFGRB
TAF
KGRB 200537Z 2006/2106 22003KT P6SM SKC
      TEMPO 2006/2009 3SM BR
     FM200900 23004KT 3SM BR SKC
      TEMPO 2009/2012 1SM BR FEW005
     FM201300 21005KT P6SM FEW250
     FM201700 21008KT P6SM SCT250
     FM202000 19010KT P6SM SCT040 BKN120=

USA.gov is the U.S. government's official web portal to all federal, state and local government web resources and services.